sensor_id;sensor_type;location;lat;lon;timestamp;P1;durP1;ratioP1;P2;durP2;ratioP2
51174;SDS011;37240;50.104;20.010;2023-04-25T00:02:08;32.45;;;18.58;;
51174;SDS011;37240;50.104;20.010;2023-04-25T00:07:09;30.92;;;18.55;;
51174;SDS011;37240;50.104;20.010;2023-04-25T00:12:09;31.55;;;18.92;;
51174;SDS011;37240;50.104;20.010;2023-04-25T00:17:10;31.27;;;19.17;;
51174;SDS011;37240;50.104;20.010;2023-04-25T00:22:11;26.65;;;14.13;;
51174;SDS011;37240;50.104;20.010;2023-04-25T00:27:11;8.60;;;6.47;;
51174;SDS011;37240;50.104;20.010;2023-04-25T00:32:12;4.47;;;3.80;;
51174;SDS011;37240;50.104;20.010;2023-04-25T00:37:13;2.70;;;2.50;;
51174;SDS011;37240;50.104;20.010;2023-04-25T00:42:13;2.60;;;2.40;;
51174;SDS011;37240;50.104;20.010;2023-04-25T00:47:14;1.92;;;1.73;;
51174;SDS011;37240;50.104;20.010;2023-04-25T00:52:15;2.25;;;2.03;;
51174;SDS011;37240;50.104;20.010;2023-04-25T00:57:16;2.83;;;1.77;;
51174;SDS011;37240;50.104;20.010;2023-04-25T01:02:16;2.33;;;1.75;;
51174;SDS011;37240;50.104;20.010;2023-04-25T01:07:17;1.35;;;1.35;;
51174;SDS011;37240;50.104;20.010;2023-04-25T01:12:18;2.67;;;1.27;;
51174;SDS011;37240;50.104;20.010;2023-04-25T01:17:19;1.00;;;1.00;;
51174;SDS011;37240;50.104;20.010;2023-04-25T01:22:20;1.17;;;1.17;;
51174;SDS011;37240;50.104;20.010;2023-04-25T01:27:20;1.30;;;1.20;;
51174;SDS011;37240;50.104;20.010;2023-04-25T01:32:24;1.13;;;1.13;;
51174;SDS011;37240;50.104;20.010;2023-04-25T01:37:26;3.47;;;1.60;;
51174;SDS011;37240;50.104;20.010;2023-04-25T01:42:26;2.03;;;1.83;;
51174;SDS011;37240;50.104;20.010;2023-04-25T01:47:27;1.90;;;1.75;;
51174;SDS011;37240;50.104;20.010;2023-04-25T01:52:28;3.20;;;1.58;;
51174;SDS011;37240;50.104;20.010;2023-04-25T01:57:28;2.53;;;1.80;;
51174;SDS011;37240;50.104;20.010;2023-04-25T02:02:29;1.77;;;1.65;;
51174;SDS011;37240;50.104;20.010;2023-04-25T02:07:30;4.72;;;3.05;;
51174;SDS011;37240;50.104;20.010;2023-04-25T02:12:31;61.70;;;29.58;;
51174;SDS011;37240;50.104;20.010;2023-04-25T02:17:32;10.38;;;6.43;;
51174;SDS011;37240;50.104;20.010;2023-04-25T02:22:32;3.65;;;3.00;;
51174;SDS011;37240;50.104;20.010;2023-04-25T02:27:33;2.90;;;2.08;;
51174;SDS011;37240;50.104;20.010;2023-04-25T02:32:34;1.83;;;1.73;;
51174;SDS011;37240;50.104;20.010;2023-04-25T02:37:37;4.43;;;2.65;;
51174;SDS011;37240;50.104;20.010;2023-04-25T02:42:38;2.13;;;1.95;;
51174;SDS011;37240;50.104;20.010;2023-04-25T02:47:38;3.53;;;2.63;;
51174;SDS011;37240;50.104;20.010;2023-04-25T02:52:39;4.55;;;2.53;;
51174;SDS011;37240;50.104;20.010;2023-04-25T02:57:39;3.03;;;2.15;;
51174;SDS011;37240;50.104;20.010;2023-04-25T03:02:40;2.70;;;2.50;;
51174;SDS011;37240;50.104;20.010;2023-04-25T03:07:41;6.10;;;2.70;;
51174;SDS011;37240;50.104;20.010;2023-04-25T03:12:41;3.88;;;2.10;;
51174;SDS011;37240;50.104;20.010;2023-04-25T03:17:42;3.45;;;2.15;;
51174;SDS011;37240;50.104;20.010;2023-04-25T03:22:42;2.38;;;2.10;;
51174;SDS011;37240;50.104;20.010;2023-04-25T03:27:43;3.53;;;2.40;;
51174;SDS011;37240;50.104;20.010;2023-04-25T03:32:43;5.22;;;2.65;;
51174;SDS011;37240;50.104;20.010;2023-04-25T03:37:44;4.75;;;2.80;;
51174;SDS011;37240;50.104;20.010;2023-04-25T03:42:44;2.63;;;2.42;;
51174;SDS011;37240;50.104;20.010;2023-04-25T03:47:45;3.08;;;2.35;;
51174;SDS011;37240;50.104;20.010;2023-04-25T03:52:45;2.05;;;1.95;;
51174;SDS011;37240;50.104;20.010;2023-04-25T03:57:46;3.00;;;2.45;;
51174;SDS011;37240;50.104;20.010;2023-04-25T04:02:46;8.48;;;3.53;;
51174;SDS011;37240;50.104;20.010;2023-04-25T04:07:47;5.10;;;3.95;;
51174;SDS011;37240;50.104;20.010;2023-04-25T04:12:47;4.90;;;3.58;;
51174;SDS011;37240;50.104;20.010;2023-04-25T04:17:48;6.15;;;4.05;;
51174;SDS011;37240;50.104;20.010;2023-04-25T04:22:49;13.60;;;4.20;;
51174;SDS011;37240;50.104;20.010;2023-04-25T04:27:50;5.28;;;3.90;;
51174;SDS011;37240;50.104;20.010;2023-04-25T04:32:51;5.85;;;4.32;;
51174;SDS011;37240;50.104;20.010;2023-04-25T04:37:51;6.40;;;4.68;;
51174;SDS011;37240;50.104;20.010;2023-04-25T04:42:53;8.07;;;3.75;;
51174;SDS011;37240;50.104;20.010;2023-04-25T04:47:53;6.15;;;4.93;;
51174;SDS011;37240;50.104;20.010;2023-04-25T04:52:54;7.05;;;4.57;;
51174;SDS011;37240;50.104;20.010;2023-04-25T04:57:54;5.57;;;4.82;;
51174;SDS011;37240;50.104;20.010;2023-04-25T05:02:55;7.47;;;4.97;;
51174;SDS011;37240;50.104;20.010;2023-04-25T05:07:56;12.05;;;5.90;;
51174;SDS011;37240;50.104;20.010;2023-04-25T05:12:56;11.80;;;5.75;;
51174;SDS011;37240;50.104;20.010;2023-04-25T05:17:57;11.70;;;6.25;;
51174;SDS011;37240;50.104;20.010;2023-04-25T05:22:57;10.75;;;5.60;;
51174;SDS011;37240;50.104;20.010;2023-04-25T05:27:58;12.55;;;5.32;;
51174;SDS011;37240;50.104;20.010;2023-04-25T05:32:59;12.73;;;5.60;;
51174;SDS011;37240;50.104;20.010;2023-04-25T05:37:59;4.07;;;3.67;;
51174;SDS011;37240;50.104;20.010;2023-04-25T05:43:00;5.97;;;2.88;;
51174;SDS011;37240;50.104;20.010;2023-04-25T05:48:00;7.47;;;2.95;;
51174;SDS011;37240;50.104;20.010;2023-04-25T05:53:01;4.13;;;2.55;;
51174;SDS011;37240;50.104;20.010;2023-04-25T05:58:01;2.58;;;2.35;;
51174;SDS011;37240;50.104;20.010;2023-04-25T06:03:02;3.33;;;2.67;;
51174;SDS011;37240;50.104;20.010;2023-04-25T06:08:03;2.97;;;2.25;;
51174;SDS011;37240;50.104;20.010;2023-04-25T06:13:04;5.43;;;2.30;;
51174;SDS011;37240;50.104;20.010;2023-04-25T06:18:05;3.42;;;2.20;;
51174;SDS011;37240;50.104;20.010;2023-04-25T06:23:05;4.07;;;2.20;;
51174;SDS011;37240;50.104;20.010;2023-04-25T06:28:06;3.03;;;2.60;;
51174;SDS011;37240;50.104;20.010;2023-04-25T06:33:06;2.28;;;2.08;;
51174;SDS011;37240;50.104;20.010;2023-04-25T06:38:07;2.80;;;1.67;;
51174;SDS011;37240;50.104;20.010;2023-04-25T06:43:07;1.20;;;1.10;;
51174;SDS011;37240;50.104;20.010;2023-04-25T06:48:08;2.22;;;1.80;;
51174;SDS011;37240;50.104;20.010;2023-04-25T06:53:08;2.20;;;1.65;;
51174;SDS011;37240;50.104;20.010;2023-04-25T06:58:09;3.45;;;2.30;;
51174;SDS011;37240;50.104;20.010;2023-04-25T07:03:10;2.45;;;2.25;;
51174;SDS011;37240;50.104;20.010;2023-04-25T07:08:10;1.77;;;1.58;;
51174;SDS011;37240;50.104;20.010;2023-04-25T07:13:11;3.47;;;1.98;;
51174;SDS011;37240;50.104;20.010;2023-04-25T07:18:11;2.10;;;2.00;;
51174;SDS011;37240;50.104;20.010;2023-04-25T07:23:12;2.92;;;2.40;;
51174;SDS011;37240;50.104;20.010;2023-04-25T07:28:12;4.25;;;1.60;;
51174;SDS011;37240;50.104;20.010;2023-04-25T07:33:13;2.40;;;2.20;;
51174;SDS011;37240;50.104;20.010;2023-04-25T07:38:13;2.17;;;2.03;;
51174;SDS011;37240;50.104;20.010;2023-04-25T07:43:14;1.80;;;1.70;;
51174;SDS011;37240;50.104;20.010;2023-04-25T07:48:18;2.47;;;1.60;;
51174;SDS011;37240;50.104;20.010;2023-04-25T07:53:18;2.33;;;1.80;;
51174;SDS011;37240;50.104;20.010;2023-04-25T07:58:19;1.45;;;1.30;;
51174;SDS011;37240;50.104;20.010;2023-04-25T08:03:19;5.07;;;2.55;;
51174;SDS011;37240;50.104;20.010;2023-04-25T08:08:20;1.90;;;1.55;;
51174;SDS011;37240;50.104;20.010;2023-04-25T08:13:20;1.73;;;1.63;;
51174;SDS011;37240;50.104;20.010;2023-04-25T08:18:21;1.88;;;1.77;;
51174;SDS011;37240;50.104;20.010;2023-04-25T08:23:22;3.70;;;2.50;;
51174;SDS011;37240;50.104;20.010;2023-04-25T08:28:22;1.95;;;1.38;;
51174;SDS011;37240;50.104;20.010;2023-04-25T08:33:23;5.07;;;1.83;;
51174;SDS011;37240;50.104;20.010;2023-04-25T08:38:23;78.10;;;38.40;;
51174;SDS011;37240;50.104;20.010;2023-04-25T08:43:24;50.63;;;26.85;;
51174;SDS011;37240;50.104;20.010;2023-04-25T08:48:26;9.98;;;5.88;;
51174;SDS011;37240;50.104;20.010;2023-04-25T08:53:28;2.92;;;2.72;;
51174;SDS011;37240;50.104;20.010;2023-04-25T08:58:32;2.08;;;1.98;;
51174;SDS011;37240;50.104;20.010;2023-04-25T09:03:33;2.38;;;2.22;;
51174;SDS011;37240;50.104;20.010;2023-04-25T09:08:34;3.80;;;2.15;;
51174;SDS011;37240;50.104;20.010;2023-04-25T09:13:36;6.70;;;1.88;;
51174;SDS011;37240;50.104;20.010;2023-04-25T09:18:37;12.13;;;2.00;;
51174;SDS011;37240;50.104;20.010;2023-04-25T09:23:44;3.28;;;2.20;;
51174;SDS011;37240;50.104;20.010;2023-04-25T09:28:46;14.75;;;7.53;;
51174;SDS011;37240;50.104;20.010;2023-04-25T09:33:47;4.22;;;3.72;;
51174;SDS011;37240;50.104;20.010;2023-04-25T09:38:47;5.80;;;2.10;;
51174;SDS011;37240;50.104;20.010;2023-04-25T09:43:48;2.75;;;2.05;;
51174;SDS011;37240;50.104;20.010;2023-04-25T09:48:49;2.00;;;1.83;;
51174;SDS011;37240;50.104;20.010;2023-04-25T09:53:51;2.55;;;1.60;;
51174;SDS011;37240;50.104;20.010;2023-04-25T09:58:51;3.67;;;2.28;;
51174;SDS011;37240;50.104;20.010;2023-04-25T10:03:54;2.10;;;1.52;;
51174;SDS011;37240;50.104;20.010;2023-04-25T10:08:57;7.65;;;2.20;;
51174;SDS011;37240;50.104;20.010;2023-04-25T10:13:58;1.30;;;1.20;;
51174;SDS011;37240;50.104;20.010;2023-04-25T10:19:00;2.10;;;1.75;;
51174;SDS011;37240;50.104;20.010;2023-04-25T10:24:02;1.55;;;1.45;;
51174;SDS011;37240;50.104;20.010;2023-04-25T10:29:03;1.55;;;1.30;;
51174;SDS011;37240;50.104;20.010;2023-04-25T10:34:03;4.97;;;1.33;;
51174;SDS011;37240;50.104;20.010;2023-04-25T10:39:05;2.70;;;1.27;;
51174;SDS011;37240;50.104;20.010;2023-04-25T10:44:06;1.80;;;1.65;;
51174;SDS011;37240;50.104;20.010;2023-04-25T10:49:08;8.18;;;2.33;;
51174;SDS011;37240;50.104;20.010;2023-04-25T10:54:09;4.82;;;1.67;;
51174;SDS011;37240;50.104;20.010;2023-04-25T11:04:31;3.33;;;1.58;;
51174;SDS011;37240;50.104;20.010;2023-04-25T11:09:33;2.10;;;1.65;;
51174;SDS011;37240;50.104;20.010;2023-04-25T11:14:35;2.88;;;1.73;;
51174;SDS011;37240;50.104;20.010;2023-04-25T11:19:36;2.95;;;1.52;;
51174;SDS011;37240;50.104;20.010;2023-04-25T11:24:36;6.07;;;1.63;;
51174;SDS011;37240;50.104;20.010;2023-04-25T11:29:37;4.22;;;1.90;;
51174;SDS011;37240;50.104;20.010;2023-04-25T11:34:38;2.88;;;2.00;;
51174;SDS011;37240;50.104;20.010;2023-04-25T11:39:42;5.47;;;2.20;;
51174;SDS011;37240;50.104;20.010;2023-04-25T11:44:44;6.05;;;2.17;;
51174;SDS011;37240;50.104;20.010;2023-04-25T11:49:44;3.92;;;2.15;;
51174;SDS011;37240;50.104;20.010;2023-04-25T11:54:45;3.80;;;1.80;;
51174;SDS011;37240;50.104;20.010;2023-04-25T11:59:45;4.10;;;2.22;;
51174;SDS011;37240;50.104;20.010;2023-04-25T12:04:46;2.60;;;2.15;;
51174;SDS011;37240;50.104;20.010;2023-04-25T12:09:51;7.70;;;2.20;;
51174;SDS011;37240;50.104;20.010;2023-04-25T12:14:52;7.13;;;2.00;;
51174;SDS011;37240;50.104;20.010;2023-04-25T12:19:52;2.30;;;2.10;;
51174;SDS011;37240;50.104;20.010;2023-04-25T12:24:53;5.53;;;2.63;;
51174;SDS011;37240;50.104;20.010;2023-04-25T12:29:54;4.25;;;2.47;;
51174;SDS011;37240;50.104;20.010;2023-04-25T12:34:56;4.72;;;2.42;;
51174;SDS011;37240;50.104;20.010;2023-04-25T12:39:56;4.40;;;2.85;;
51174;SDS011;37240;50.104;20.010;2023-04-25T12:44:57;4.80;;;2.75;;
51174;SDS011;37240;50.104;20.010;2023-04-25T12:49:57;4.10;;;2.53;;
51174;SDS011;37240;50.104;20.010;2023-04-25T12:54:58;8.32;;;3.42;;
51174;SDS011;37240;50.104;20.010;2023-04-25T12:59:58;5.43;;;2.00;;
51174;SDS011;37240;50.104;20.010;2023-04-25T13:04:59;6.50;;;1.98;;
51174;SDS011;37240;50.104;20.010;2023-04-25T13:09:59;3.20;;;1.90;;
51174;SDS011;37240;50.104;20.010;2023-04-25T13:15:00;6.00;;;2.45;;
51174;SDS011;37240;50.104;20.010;2023-04-25T13:20:00;4.75;;;1.98;;
51174;SDS011;37240;50.104;20.010;2023-04-25T13:25:01;2.85;;;1.60;;
51174;SDS011;37240;50.104;20.010;2023-04-25T13:30:02;2.25;;;1.73;;
51174;SDS011;37240;50.104;20.010;2023-04-25T13:35:12;2.28;;;2.00;;
51174;SDS011;37240;50.104;20.010;2023-04-25T13:40:13;1.52;;;1.42;;
51174;SDS011;37240;50.104;20.010;2023-04-25T13:45:14;2.28;;;1.42;;
51174;SDS011;37240;50.104;20.010;2023-04-25T13:50:14;3.67;;;1.75;;
51174;SDS011;37240;50.104;20.010;2023-04-25T13:55:15;2.10;;;1.88;;
51174;SDS011;37240;50.104;20.010;2023-04-25T14:00:16;3.88;;;2.15;;
51174;SDS011;37240;50.104;20.010;2023-04-25T14:05:16;5.68;;;2.10;;
51174;SDS011;37240;50.104;20.010;2023-04-25T14:10:17;6.15;;;2.67;;
51174;SDS011;37240;50.104;20.010;2023-04-25T14:15:18;6.03;;;2.60;;
51174;SDS011;37240;50.104;20.010;2023-04-25T14:20:18;37.67;;;16.52;;
51174;SDS011;37240;50.104;20.010;2023-04-25T14:25:19;8.55;;;5.57;;
51174;SDS011;37240;50.104;20.010;2023-04-25T14:30:20;4.90;;;3.13;;
51174;SDS011;37240;50.104;20.010;2023-04-25T14:35:21;2.80;;;2.17;;
51174;SDS011;37240;50.104;20.010;2023-04-25T14:40:22;3.60;;;2.70;;
51174;SDS011;37240;50.104;20.010;2023-04-25T14:45:23;6.82;;;2.80;;
51174;SDS011;37240;50.104;20.010;2023-04-25T14:50:23;3.83;;;1.75;;
51174;SDS011;37240;50.104;20.010;2023-04-25T14:55:24;2.08;;;1.48;;
51174;SDS011;37240;50.104;20.010;2023-04-25T15:00:25;3.03;;;1.98;;
51174;SDS011;37240;50.104;20.010;2023-04-25T15:05:25;9.05;;;2.03;;
51174;SDS011;37240;50.104;20.010;2023-04-25T15:10:26;2.72;;;1.40;;
51174;SDS011;37240;50.104;20.010;2023-04-25T15:15:26;2.60;;;1.90;;
51174;SDS011;37240;50.104;20.010;2023-04-25T15:20:27;6.78;;;2.03;;
51174;SDS011;37240;50.104;20.010;2023-04-25T15:25:27;3.88;;;2.03;;
51174;SDS011;37240;50.104;20.010;2023-04-25T15:30:28;2.85;;;2.40;;
51174;SDS011;37240;50.104;20.010;2023-04-25T15:35:28;18.38;;;10.15;;
51174;SDS011;37240;50.104;20.010;2023-04-25T15:40:29;7.35;;;4.20;;
51174;SDS011;37240;50.104;20.010;2023-04-25T15:45:29;3.67;;;2.65;;
51174;SDS011;37240;50.104;20.010;2023-04-25T15:50:30;6.18;;;2.55;;
51174;SDS011;37240;50.104;20.010;2023-04-25T15:55:31;7.13;;;2.58;;
51174;SDS011;37240;50.104;20.010;2023-04-25T16:00:31;5.82;;;2.53;;
51174;SDS011;37240;50.104;20.010;2023-04-25T16:05:32;3.35;;;2.33;;
51174;SDS011;37240;50.104;20.010;2023-04-25T16:10:32;6.85;;;2.42;;
51174;SDS011;37240;50.104;20.010;2023-04-25T16:15:33;55.80;;;29.75;;
51174;SDS011;37240;50.104;20.010;2023-04-25T16:20:34;22.25;;;12.95;;
51174;SDS011;37240;50.104;20.010;2023-04-25T16:25:34;13.05;;;6.78;;
51174;SDS011;37240;50.104;20.010;2023-04-25T16:30:35;7.72;;;3.53;;
51174;SDS011;37240;50.104;20.010;2023-04-25T16:35:35;7.85;;;2.85;;
51174;SDS011;37240;50.104;20.010;2023-04-25T16:40:36;3.75;;;2.78;;
51174;SDS011;37240;50.104;20.010;2023-04-25T16:45:36;5.07;;;2.80;;
51174;SDS011;37240;50.104;20.010;2023-04-25T16:50:37;4.53;;;2.30;;
51174;SDS011;37240;50.104;20.010;2023-04-25T16:55:37;3.95;;;3.00;;
51174;SDS011;37240;50.104;20.010;2023-04-25T17:00:38;4.50;;;2.05;;
51174;SDS011;37240;50.104;20.010;2023-04-25T17:05:39;4.30;;;2.95;;
51174;SDS011;37240;50.104;20.010;2023-04-25T17:10:40;6.25;;;2.50;;
51174;SDS011;37240;50.104;20.010;2023-04-25T17:15:40;4.35;;;2.53;;
51174;SDS011;37240;50.104;20.010;2023-04-25T17:20:41;11.60;;;4.22;;
51174;SDS011;37240;50.104;20.010;2023-04-25T17:25:42;7.18;;;3.53;;
51174;SDS011;37240;50.104;20.010;2023-04-25T17:30:42;5.43;;;3.05;;
51174;SDS011;37240;50.104;20.010;2023-04-25T17:35:43;5.93;;;2.72;;
51174;SDS011;37240;50.104;20.010;2023-04-25T17:40:44;4.40;;;3.00;;
51174;SDS011;37240;50.104;20.010;2023-04-25T17:45:44;19.83;;;9.73;;
51174;SDS011;37240;50.104;20.010;2023-04-25T17:50:45;23.55;;;9.40;;
51174;SDS011;37240;50.104;20.010;2023-04-25T17:55:45;15.75;;;5.75;;
51174;SDS011;37240;50.104;20.010;2023-04-25T18:00:46;9.52;;;4.25;;
51174;SDS011;37240;50.104;20.010;2023-04-25T18:05:47;7.45;;;3.95;;
51174;SDS011;37240;50.104;20.010;2023-04-25T18:10:47;11.07;;;5.97;;
51174;SDS011;37240;50.104;20.010;2023-04-25T18:15:48;22.17;;;6.55;;
51174;SDS011;37240;50.104;20.010;2023-04-25T18:20:48;15.70;;;5.95;;
51174;SDS011;37240;50.104;20.010;2023-04-25T18:25:49;10.65;;;4.47;;
51174;SDS011;37240;50.104;20.010;2023-04-25T18:30:49;14.95;;;5.65;;
51174;SDS011;37240;50.104;20.010;2023-04-25T18:35:50;16.42;;;6.03;;
51174;SDS011;37240;50.104;20.010;2023-04-25T18:40:51;12.88;;;5.63;;
51174;SDS011;37240;50.104;20.010;2023-04-25T18:45:51;20.92;;;8.07;;
51174;SDS011;37240;50.104;20.010;2023-04-25T18:50:52;16.50;;;6.97;;
51174;SDS011;37240;50.104;20.010;2023-04-25T18:55:52;29.77;;;7.97;;
51174;SDS011;37240;50.104;20.010;2023-04-25T19:00:53;21.55;;;8.65;;
51174;SDS011;37240;50.104;20.010;2023-04-25T19:05:53;24.48;;;9.13;;
51174;SDS011;37240;50.104;20.010;2023-04-25T19:10:54;16.73;;;7.07;;
51174;SDS011;37240;50.104;20.010;2023-04-25T19:15:54;25.05;;;8.98;;
51174;SDS011;37240;50.104;20.010;2023-04-25T19:20:55;31.20;;;10.55;;
51174;SDS011;37240;50.104;20.010;2023-04-25T19:25:55;33.40;;;11.38;;
51174;SDS011;37240;50.104;20.010;2023-04-25T19:30:58;33.45;;;11.00;;
51174;SDS011;37240;50.104;20.010;2023-04-25T19:35:58;27.92;;;10.40;;
51174;SDS011;37240;50.104;20.010;2023-04-25T19:40:59;24.10;;;11.07;;
51174;SDS011;37240;50.104;20.010;2023-04-25T19:45:59;26.02;;;11.30;;
51174;SDS011;37240;50.104;20.010;2023-04-25T19:51:00;33.65;;;11.68;;
51174;SDS011;37240;50.104;20.010;2023-04-25T19:56:00;21.90;;;9.88;;
51174;SDS011;37240;50.104;20.010;2023-04-25T20:01:01;26.10;;;9.32;;
51174;SDS011;37240;50.104;20.010;2023-04-25T20:06:02;26.13;;;8.27;;
51174;SDS011;37240;50.104;20.010;2023-04-25T20:11:02;25.08;;;8.60;;
51174;SDS011;37240;50.104;20.010;2023-04-25T20:16:03;19.27;;;8.88;;
51174;SDS011;37240;50.104;20.010;2023-04-25T20:21:04;24.15;;;8.40;;
51174;SDS011;37240;50.104;20.010;2023-04-25T20:26:05;19.42;;;7.32;;
51174;SDS011;37240;50.104;20.010;2023-04-25T20:31:05;39.35;;;18.30;;
51174;SDS011;37240;50.104;20.010;2023-04-25T20:36:06;36.83;;;17.08;;
51174;SDS011;37240;50.104;20.010;2023-04-25T20:41:07;21.77;;;9.95;;
51174;SDS011;37240;50.104;20.010;2023-04-25T20:46:08;15.88;;;7.38;;
51174;SDS011;37240;50.104;20.010;2023-04-25T20:51:08;15.07;;;6.53;;
51174;SDS011;37240;50.104;20.010;2023-04-25T20:56:09;18.00;;;7.65;;
51174;SDS011;37240;50.104;20.010;2023-04-25T21:01:09;17.80;;;7.22;;
51174;SDS011;37240;50.104;20.010;2023-04-25T21:06:10;12.13;;;5.90;;
51174;SDS011;37240;50.104;20.010;2023-04-25T21:11:11;17.38;;;7.57;;
51174;SDS011;37240;50.104;20.010;2023-04-25T21:16:11;17.92;;;7.85;;
51174;SDS011;37240;50.104;20.010;2023-04-25T21:21:12;20.70;;;7.95;;
51174;SDS011;37240;50.104;20.010;2023-04-25T21:26:12;18.20;;;8.32;;
51174;SDS011;37240;50.104;20.010;2023-04-25T21:31:13;15.32;;;7.57;;
51174;SDS011;37240;50.104;20.010;2023-04-25T21:36:14;18.17;;;8.50;;
51174;SDS011;37240;50.104;20.010;2023-04-25T21:41:15;23.52;;;9.10;;
51174;SDS011;37240;50.104;20.010;2023-04-25T21:46:15;23.05;;;10.90;;
51174;SDS011;37240;50.104;20.010;2023-04-25T21:51:16;27.52;;;11.45;;
51174;SDS011;37240;50.104;20.010;2023-04-25T21:56:16;37.13;;;13.27;;
51174;SDS011;37240;50.104;20.010;2023-04-25T22:01:17;29.75;;;13.02;;
51174;SDS011;37240;50.104;20.010;2023-04-25T22:06:18;28.25;;;11.38;;
51174;SDS011;37240;50.104;20.010;2023-04-25T22:11:18;30.65;;;12.65;;
51174;SDS011;37240;50.104;20.010;2023-04-25T22:16:19;26.88;;;10.82;;
51174;SDS011;37240;50.104;20.010;2023-04-25T22:21:19;24.85;;;10.60;;
51174;SDS011;37240;50.104;20.010;2023-04-25T22:26:20;23.55;;;11.07;;
51174;SDS011;37240;50.104;20.010;2023-04-25T22:31:20;24.02;;;9.95;;
51174;SDS011;37240;50.104;20.010;2023-04-25T22:36:21;29.48;;;9.40;;
51174;SDS011;37240;50.104;20.010;2023-04-25T22:41:21;21.35;;;8.65;;
51174;SDS011;37240;50.104;20.010;2023-04-25T22:46:22;21.08;;;8.55;;
51174;SDS011;37240;50.104;20.010;2023-04-25T22:51:22;15.57;;;6.80;;
51174;SDS011;37240;50.104;20.010;2023-04-25T22:56:23;18.23;;;6.40;;
51174;SDS011;37240;50.104;20.010;2023-04-25T23:01:23;14.43;;;5.85;;
51174;SDS011;37240;50.104;20.010;2023-04-25T23:06:24;9.00;;;4.70;;
51174;SDS011;37240;50.104;20.010;2023-04-25T23:11:24;8.70;;;4.97;;
51174;SDS011;37240;50.104;20.010;2023-04-25T23:16:25;13.57;;;5.47;;
51174;SDS011;37240;50.104;20.010;2023-04-25T23:21:26;14.32;;;5.80;;
51174;SDS011;37240;50.104;20.010;2023-04-25T23:26:26;18.40;;;5.95;;
51174;SDS011;37240;50.104;20.010;2023-04-25T23:31:27;20.58;;;6.40;;
51174;SDS011;37240;50.104;20.010;2023-04-25T23:36:27;19.15;;;6.57;;
51174;SDS011;37240;50.104;20.010;2023-04-25T23:41:28;18.35;;;6.13;;
51174;SDS011;37240;50.104;20.010;2023-04-25T23:46:28;13.38;;;5.40;;
51174;SDS011;37240;50.104;20.010;2023-04-25T23:51:29;7.35;;;4.32;;
51174;SDS011;37240;50.104;20.010;2023-04-25T23:56:30;8.27;;;3.88;;
